UAL206 MDPC-TNCM
Flight info
| Callsign | UAL206 |
|---|---|
| Flight time | 0h 24m |
| Altitude | 25000 |
| Route | MELLA2T MELLA G633 MAZ RTE12 SJU RTE6 STT B520 PJM |
| Aircraft | A320/M-SDE3FGHIRWY/LB1 |
Departure
| Time | 2026-05-04 19:13 |
|---|---|
| Airport | Punta Cana International Airport (MDPC) |
Arrival
| Time | 2026-05-04 19:37 |
|---|---|
| Airport | Princess Juliana International Airport (TNCM) |
| Time | Latitude | Longitude | Altitude | Speed | Heading |
|---|---|---|---|---|---|
| 2026-05-04 18:45 | 18.56434 | -68.36912 | 52 ft | 0 kts | 83° |
| 2026-05-04 19:06 | 18.56432 | -68.36937 | 55 ft | 4 kts | 88° |
| 2026-05-04 19:06 | 18.56430 | -68.36965 | 47 ft | 4 kts | 90° |
| 2026-05-04 19:07 | 18.56432 | -68.36993 | 47 ft | 4 kts | 98° |
| 2026-05-04 19:07 | 18.56434 | -68.37017 | 49 ft | 4 kts | 38° |
| 2026-05-04 19:07 | 18.56428 | -68.37021 | 51 ft | 1 kts | 8° |
| 2026-05-04 19:07 | 18.56427 | -68.37021 | 53 ft | 0 kts | 8° |
| 2026-05-04 19:09 | 18.56430 | -68.37020 | 53 ft | 2 kts | 8° |
| 2026-05-04 19:09 | 18.56461 | -68.37020 | 51 ft | 12 kts | 353° |
| 2026-05-04 19:10 | 18.56500 | -68.37129 | 53 ft | 14 kts | 269° |
| 2026-05-04 19:10 | 18.56492 | -68.37200 | 53 ft | 15 kts | 260° |
| 2026-05-04 19:10 | 18.56475 | -68.37317 | 52 ft | 17 kts | 264° |
| 2026-05-04 19:10 | 18.56504 | -68.36941 | 54 ft | 766 kts | 265° |
| 2026-05-04 19:11 | 18.56635 | -68.37700 | 56 ft | 0 kts | 79° |
| 2026-05-04 19:11 | 18.56633 | -68.37660 | 54 ft | 9 kts | 92° |
| 2026-05-04 19:11 | 18.56630 | -68.37587 | 54 ft | 11 kts | 92° |
| 2026-05-04 19:11 | 18.56629 | -68.37537 | 54 ft | 1 kts | 90° |
| 2026-05-04 19:12 | 18.56635 | -68.37507 | 51 ft | 20 kts | 78° |
| 2026-05-04 19:12 | 18.56742 | -68.36245 | 51 ft | 141 kts | 85° |
| 2026-05-04 19:12 | 18.56835 | -68.35073 | 220 ft | 166 kts | 91° |
| 2026-05-04 19:13 | 18.56909 | -68.33920 | 1040 ft | 155 kts | 90° |
| 2026-05-04 19:13 | 18.56992 | -68.32775 | 1671 ft | 159 kts | 90° |
| 2026-05-04 19:13 | 18.57110 | -68.31601 | 2140 ft | 166 kts | 90° |
| 2026-05-04 19:13 | 18.57152 | -68.30311 | 2356 ft | 186 kts | 104° |
| 2026-05-04 19:14 | 18.56617 | -68.29026 | 2673 ft | 200 kts | 132° |
| 2026-05-04 19:14 | 18.55603 | -68.27992 | 3325 ft | 205 kts | 138° |
| 2026-05-04 19:14 | 18.54537 | -68.26955 | 3912 ft | 217 kts | 137° |
| 2026-05-04 19:14 | 18.53367 | -68.25816 | 4288 ft | 241 kts | 137° |
| 2026-05-04 19:15 | 18.52067 | -68.24604 | 4833 ft | 256 kts | 140° |
| 2026-05-04 19:15 | 18.50665 | -68.23423 | 4987 ft | 259 kts | 142° |
| 2026-05-04 19:15 | 18.49255 | -68.22285 | 5006 ft | 259 kts | 142° |
| 2026-05-04 19:15 | 18.47837 | -68.21118 | 5072 ft | 261 kts | 136° |
| 2026-05-04 19:16 | 18.46809 | -68.19529 | 5867 ft | 264 kts | 114° |
| 2026-05-04 19:16 | 18.46159 | -68.17724 | 6772 ft | 264 kts | 111° |
| 2026-05-04 19:16 | 18.45532 | -68.15889 | 7541 ft | 268 kts | 110° |
| 2026-05-04 19:16 | 18.44342 | -68.12320 | 8941 ft | 276 kts | 110° |
| 2026-05-04 19:17 | 18.41635 | -68.04201 | 10905 ft | 325 kts | 110° |
| 2026-05-04 19:17 | 18.38481 | -67.94817 | 13031 ft | 350 kts | 110° |
| 2026-05-04 19:17 | 18.35122 | -67.84855 | 15013 ft | 370 kts | 110° |
| 2026-05-04 19:17 | 18.31581 | -67.74350 | 16946 ft | 387 kts | 109° |
| 2026-05-04 19:18 | 18.30141 | -67.69603 | 17577 ft | 393 kts | 109° |
| 2026-05-04 19:18 | 18.27786 | -67.62778 | 18769 ft | 402 kts | 111° |
| 2026-05-04 19:18 | 18.23954 | -67.51654 | 20763 ft | 411 kts | 104° |
| 2026-05-04 19:18 | 18.24009 | -67.40690 | 22484 ft | 414 kts | 88° |
| 2026-05-04 19:19 | 18.24421 | -67.33584 | 23453 ft | 411 kts | 85° |
| 2026-05-04 19:19 | 18.24679 | -67.30578 | 23801 ft | 415 kts | 86° |
| 2026-05-04 19:19 | 18.24897 | -67.27537 | 24143 ft | 418 kts | 86° |
| 2026-05-04 19:19 | 18.25090 | -67.24468 | 24488 ft | 421 kts | 87° |
| 2026-05-04 19:20 | 18.25272 | -67.21372 | 24815 ft | 424 kts | 87° |
| 2026-05-04 19:20 | 18.25453 | -67.18302 | 24986 ft | 426 kts | 86° |
| 2026-05-04 19:20 | 18.25626 | -67.15235 | 25032 ft | 415 kts | 89° |
| 2026-05-04 19:20 | 18.25532 | -67.09755 | 25034 ft | 408 kts | 91° |
| 2026-05-04 19:21 | 18.25314 | -66.99612 | 25035 ft | 406 kts | 91° |
| 2026-05-04 19:21 | 18.25074 | -66.87901 | 25041 ft | 405 kts | 91° |
| 2026-05-04 19:21 | 18.24829 | -66.76045 | 25058 ft | 405 kts | 91° |
| 2026-05-04 19:21 | 18.25173 | -66.64215 | 25066 ft | 405 kts | 82° |
| 2026-05-04 19:22 | 18.26651 | -66.52547 | 25020 ft | 405 kts | 82° |
| 2026-05-04 19:22 | 18.26446 | -66.40666 | 24884 ft | 406 kts | 92° |
| 2026-05-04 19:22 | 18.26006 | -66.28883 | 24886 ft | 404 kts | 92° |
| 2026-05-04 19:22 | 18.25493 | -66.17104 | 24978 ft | 398 kts | 92° |
| 2026-05-04 19:23 | 18.24704 | -66.05477 | 25292 ft | 382 kts | 96° |
| 2026-05-04 19:23 | 18.24449 | -66.00572 | 25406 ft | 396 kts | 91° |
| 2026-05-04 19:23 | 18.24425 | -65.97664 | 25125 ft | 399 kts | 90° |
| 2026-05-04 19:23 | 18.24418 | -65.94735 | 25014 ft | 400 kts | 90° |
| 2026-05-04 19:24 | 18.24382 | -65.91842 | 25043 ft | 401 kts | 91° |
| 2026-05-04 19:24 | 18.24277 | -65.88160 | 25044 ft | 402 kts | 92° |
| 2026-05-04 19:24 | 18.23746 | -65.77244 | 25051 ft | 402 kts | 92° |
| 2026-05-04 19:24 | 18.23198 | -65.65509 | 25059 ft | 401 kts | 92° |
| 2026-05-04 19:25 | 18.22672 | -65.53808 | 25045 ft | 401 kts | 92° |
| 2026-05-04 19:25 | 18.22126 | -65.42084 | 25053 ft | 400 kts | 92° |
| 2026-05-04 19:25 | 18.21682 | -65.30446 | 25154 ft | 394 kts | 94° |
| 2026-05-04 19:25 | 18.21175 | -65.24716 | 24797 ft | 401 kts | 92° |
| 2026-05-04 19:26 | 18.21064 | -65.21803 | 24797 ft | 400 kts | 92° |
| 2026-05-04 19:26 | 18.20966 | -65.18879 | 25062 ft | 401 kts | 91° |
| 2026-05-04 19:26 | 18.20863 | -65.15950 | 25043 ft | 400 kts | 92° |
| 2026-05-04 19:26 | 18.20668 | -65.11202 | 25045 ft | 400 kts | 92° |
| 2026-05-04 19:27 | 18.20349 | -65.04659 | 25045 ft | 400 kts | 92° |
| 2026-05-04 19:27 | 18.19767 | -64.92997 | 25045 ft | 399 kts | 92° |
| 2026-05-04 19:27 | 18.19178 | -64.81327 | 25046 ft | 399 kts | 92° |
| 2026-05-04 19:27 | 18.18592 | -64.69711 | 25051 ft | 399 kts | 92° |
| 2026-05-04 19:28 | 18.18002 | -64.58074 | 25033 ft | 398 kts | 92° |
| 2026-05-04 19:28 | 18.17549 | -64.49191 | 25084 ft | 417 kts | 92° |
| 2026-05-04 19:28 | 18.17391 | -64.46154 | 25041 ft | 417 kts | 92° |
| 2026-05-04 19:28 | 18.17229 | -64.43127 | 24970 ft | 410 kts | 92° |
| 2026-05-04 19:29 | 18.16906 | -64.36997 | 23663 ft | 392 kts | 93° |
| 2026-05-04 19:29 | 18.16315 | -64.25762 | 20162 ft | 381 kts | 93° |
| 2026-05-04 19:29 | 18.15752 | -64.15262 | 18537 ft | 351 kts | 93° |
| 2026-05-04 19:29 | 18.15208 | -64.05100 | 16851 ft | 349 kts | 93° |
| 2026-05-04 19:30 | 18.14656 | -63.94843 | 15059 ft | 343 kts | 94° |
| 2026-05-04 19:30 | 18.14146 | -63.85512 | 13503 ft | 298 kts | 94° |
| 2026-05-04 19:30 | 18.13674 | -63.77171 | 12147 ft | 291 kts | 94° |
| 2026-05-04 19:30 | 18.13200 | -63.68543 | 10654 ft | 299 kts | 94° |
| 2026-05-04 19:31 | 18.11040 | -63.60159 | 9049 ft | 299 kts | 109° |
| 2026-05-04 19:31 | 18.08565 | -63.52203 | 7952 ft | 282 kts | 109° |
| 2026-05-04 19:31 | 18.06100 | -63.44353 | 6044 ft | 296 kts | 109° |
| 2026-05-04 19:31 | 18.03717 | -63.36781 | 4756 ft | 247 kts | 109° |
| 2026-05-04 19:32 | 18.02885 | -63.34140 | 4220 ft | 231 kts | 109° |
| 2026-05-04 19:32 | 18.02394 | -63.32578 | 3930 ft | 220 kts | 109° |
| 2026-05-04 19:32 | 18.01927 | -63.31090 | 3647 ft | 209 kts | 110° |
| 2026-05-04 19:32 | 18.01617 | -63.29641 | 3343 ft | 207 kts | 96° |
| 2026-05-04 19:33 | 18.01685 | -63.28120 | 3056 ft | 208 kts | 84° |
| 2026-05-04 19:33 | 18.01883 | -63.26623 | 2781 ft | 206 kts | 85° |
| 2026-05-04 19:33 | 18.02083 | -63.25127 | 2505 ft | 206 kts | 85° |
| 2026-05-04 19:33 | 18.02285 | -63.23645 | 2237 ft | 202 kts | 84° |
| 2026-05-04 19:34 | 18.02484 | -63.22237 | 1983 ft | 189 kts | 84° |
| 2026-05-04 19:34 | 18.02642 | -63.21127 | 1752 ft | 177 kts | 83° |
| 2026-05-04 19:34 | 18.02815 | -63.19935 | 1538 ft | 154 kts | 85° |
| 2026-05-04 19:34 | 18.02964 | -63.18885 | 1359 ft | 141 kts | 84° |
| 2026-05-04 19:35 | 18.03105 | -63.17880 | 1178 ft | 136 kts | 84° |
| 2026-05-04 19:35 | 18.03242 | -63.16901 | 998 ft | 135 kts | 86° |
| 2026-05-04 19:35 | 18.03379 | -63.15930 | 826 ft | 135 kts | 85° |
| 2026-05-04 19:35 | 18.03527 | -63.14961 | 683 ft | 134 kts | 83° |
| 2026-05-04 19:36 | 18.03666 | -63.13976 | 505 ft | 136 kts | 86° |
| 2026-05-04 19:36 | 18.03800 | -63.12996 | 248 ft | 133 kts | 83° |
| 2026-05-04 19:36 | 18.03937 | -63.12020 | 88 ft | 135 kts | 83° |
| 2026-05-04 19:36 | 18.04062 | -63.11109 | 22 ft | 106 kts | 84° |
| 2026-05-04 19:37 | 18.04129 | -63.10638 | 21 ft | 34 kts | 81° |
| 2026-05-04 19:37 | 18.04126 | -63.10484 | 21 ft | 16 kts | 64° |
| 2026-05-04 19:37 | 18.04156 | -63.10490 | 21 ft | 8 kts | 256° |
| 2026-05-04 19:37 | 18.04141 | -63.10562 | 21 ft | 12 kts | 258° |
| 2026-05-04 19:38 | 18.04127 | -63.10664 | 21 ft | 18 kts | 263° |
| 2026-05-04 19:38 | 18.04146 | -63.10737 | 21 ft | 6 kts | 356° |
| 2026-05-04 19:38 | 18.04186 | -63.10758 | 23 ft | 8 kts | 290° |
| 2026-05-04 19:38 | 18.04192 | -63.10851 | 21 ft | 19 kts | 272° |